Zamokta, Russia
Current Conditions -  °F | °C
As of 2:30 PM on Thursday 23 Oct 2014 (Local Time) from UIUU Reporting Station
Overcast Overcast  
Wind Chill: 43°   Ceiling: 10000
Heat Index: 43°   Visibility: 6mi
Dew Point: 30°   Wind: 2mph
Humidity: 61%   Direction: 330°NNW
Pressure: 29.85"   Gusts: NA
Location:  52.77°N, 109.97°E
Report Text: UIUU 230630Z 33001MPS 9999 SCT040CB OVC100 06/M01 Q1011 NOSIGRMK QFE714/0952 26CLRD60
Loading
Personal Weather Stations






























Interactive Weather Map
Tropical Storm Tracking
New forecast layout! Learn more

10-Day Weather Forecast

Advertisements
Track Severe Weather on mobile